Time;durP1;ratioP1;P1;durP2;ratioP2;P2;SDS_P1;SDS_P2;PMS_P1;PMS_P2;Temp;Humidity;BMP_temperature;BMP_pressure;BME280_temperature;BME280_humidity;BME280_pressure;Samples;Min_cycle;Max_cycle;Signal;HPM_P1;HPM_P2
2021/01/29 00:02:00;;;;;;;3.38;1.90;;;;;;;;;;5056656;28;20206;-47
2021/01/29 00:04:26;;;;;;;4.55;2.47;;;;;;;;;;5053789;28;20217;-48
2021/01/29 00:06:52;;;;;;;3.42;1.90;;;;;;;;;;5053722;28;20254;-48
2021/01/29 00:09:19;;;;;;;2.83;1.85;;;;;;;;;;5055786;28;20241;-48
2021/01/29 00:11:45;;;;;;;2.67;1.50;;;;;;;;;;5053833;28;20219;-48
2021/01/29 00:14:11;;;;;;;2.00;1.73;;;;;;;;;;5058438;28;20186;-48
2021/01/29 00:16:37;;;;;;;3.35;1.90;;;;;;;;;;5069299;28;20240;-47
2021/01/29 00:19:03;;;;;;;2.20;1.70;;;;;;;;;;5073249;28;20194;-47
2021/01/29 00:21:30;;;;;;;3.65;1.90;;;;;;;;;;5054149;28;20179;-48
2021/01/29 00:23:56;;;;;;;3.67;1.70;;;;;;;;;;5053939;28;20272;-48
2021/01/29 00:26:22;;;;;;;2.85;1.60;;;;;;;;;;5062091;28;20201;-48
2021/01/29 00:28:48;;;;;;;1.98;1.65;;;;;;;;;;5072471;28;20190;-47
2021/01/29 00:31:14;;;;;;;2.40;1.75;;;;;;;;;;5062846;28;20175;-47
2021/01/29 00:33:40;;;;;;;2.00;1.63;;;;;;;;;;5070509;28;20765;-47
2021/01/29 00:36:06;;;;;;;2.15;1.60;;;;;;;;;;5072983;28;20295;-47
2021/01/29 00:38:32;;;;;;;1.75;1.30;;;;;;;;;;5074064;28;20171;-48
2021/01/29 00:40:58;;;;;;;2.22;1.40;;;;;;;;;;5071961;28;20193;-48
2021/01/29 00:43:24;;;;;;;1.60;1.50;;;;;;;;;;5073705;28;20212;-48
2021/01/29 00:45:50;;;;;;;1.88;1.40;;;;;;;;;;5066874;28;20183;-47
2021/01/29 00:48:16;;;;;;;2.67;1.42;;;;;;;;;;5064681;28;20183;-47
2021/01/29 00:50:42;;;;;;;2.63;1.75;;;;;;;;;;5060164;28;20179;-47
2021/01/29 00:53:09;;;;;;;1.95;1.50;;;;;;;;;;5054416;28;20183;-48
2021/01/29 00:55:36;;;;;;;1.73;1.40;;;;;;;;;;5067219;28;20186;-49
2021/01/29 00:58:02;;;;;;;2.53;1.48;;;;;;;;;;5058506;28;20190;-48
2021/01/29 01:00:28;;;;;;;1.83;1.25;;;;;;;;;;5072102;28;20206;-47
2021/01/29 01:02:54;;;;;;;2.60;1.35;;;;;;;;;;5067278;28;20200;-48
2021/01/29 01:05:20;;;;;;;2.03;1.30;;;;;;;;;;5072811;28;20300;-47
2021/01/29 01:07:47;;;;;;;2.05;1.30;;;;;;;;;;5056227;28;20183;-47
2021/01/29 01:10:14;;;;;;;1.80;1.20;;;;;;;;;;5070512;28;20226;-48
2021/01/29 01:12:40;;;;;;;2.03;1.70;;;;;;;;;;5052668;28;20179;-47
2021/01/29 01:15:13;;;;;;;1.20;1.10;;;;;;;;;;5053839;28;20194;-48
2021/01/29 01:17:40;;;;;;;1.83;1.50;;;;;;;;;;5053922;28;20515;-47
2021/01/29 01:20:07;;;;;;;1.50;1.40;;;;;;;;;;5068266;28;20458;-48
2021/01/29 01:22:33;;;;;;;2.72;1.30;;;;;;;;;;5072042;28;20193;-47
2021/01/29 01:24:59;;;;;;;1.85;1.25;;;;;;;;;;5062132;28;20203;-47
2021/01/29 01:27:25;;;;;;;1.67;1.30;;;;;;;;;;5068335;28;20247;-47
2021/01/29 01:29:51;;;;;;;1.50;1.20;;;;;;;;;;5063161;28;20258;-47
2021/01/29 01:32:17;;;;;;;1.33;1.23;;;;;;;;;;5057219;28;20512;-47
2021/01/29 01:34:43;;;;;;;2.00;1.20;;;;;;;;;;5053187;28;20215;-47
2021/01/29 01:37:09;;;;;;;1.33;1.10;;;;;;;;;;5053078;28;20438;-47
2021/01/29 01:39:35;;;;;;;1.88;1.23;;;;;;;;;;5052449;28;20175;-49
2021/01/29 01:42:01;;;;;;;1.25;1.08;;;;;;;;;;5053129;28;20198;-47
2021/01/29 01:44:38;;;;;;;1.23;0.98;;;;;;;;;;5053657;28;20238;-48
2021/01/29 01:47:08;;;;;;;1.52;1.17;;;;;;;;;;5060013;28;20193;-48
2021/01/29 01:49:35;;;;;;;1.73;1.20;;;;;;;;;;5067485;28;20171;-47
2021/01/29 01:52:04;;;;;;;1.30;1.20;;;;;;;;;;5057605;28;20183;-48
2021/01/29 01:54:34;;;;;;;1.60;1.23;;;;;;;;;;5065962;28;20487;-48
2021/01/29 01:57:01;;;;;;;1.10;1.00;;;;;;;;;;5060833;28;20190;-48
2021/01/29 01:59:30;;;;;;;1.50;1.10;;;;;;;;;;5072455;28;20240;-47
2021/01/29 02:01:56;;;;;;;1.58;1.15;;;;;;;;;;5063928;28;20252;-47
2021/01/29 02:04:25;;;;;;;1.33;1.23;;;;;;;;;;5053776;28;20234;-48
2021/01/29 02:07:04;;;;;;;1.60;1.10;;;;;;;;;;5054526;28;20179;-47
2021/01/29 02:09:31;;;;;;;1.42;1.20;;;;;;;;;;5071662;28;20182;-48
2021/01/29 02:11:57;;;;;;;1.38;1.20;;;;;;;;;;5072314;28;20182;-48
2021/01/29 02:14:23;;;;;;;1.10;1.00;;;;;;;;;;5066845;28;20456;-48
2021/01/29 02:16:49;;;;;;;1.25;1.10;;;;;;;;;;5064945;28;20213;-48
2021/01/29 02:19:27;;;;;;;1.50;1.10;;;;;;;;;;5069997;28;20265;-48
2021/01/29 02:22:12;;;;;;;1.52;1.20;;;;;;;;;;5053152;28;20285;-48
2021/01/29 02:24:53;;;;;;;1.15;0.95;;;;;;;;;;5061205;28;20226;-47
2021/01/29 02:27:25;;;;;;;2.05;1.02;;;;;;;;;;5068715;28;20197;-47
2021/01/29 02:29:54;;;;;;;1.73;1.30;;;;;;;;;;5072536;28;20178;-47
2021/01/29 02:32:20;;;;;;;0.90;0.90;;;;;;;;;;5064778;28;20210;-47
2021/01/29 02:34:46;;;;;;;1.05;0.95;;;;;;;;;;5074281;28;20504;-47
2021/01/29 02:37:38;;;;;;;1.00;1.00;;;;;;;;;;5076056;28;20482;-47
2021/01/29 02:40:13;;;;;;;1.42;1.05;;;;;;;;;;5074404;28;20202;-48
2021/01/29 02:42:42;;;;;;;1.00;1.00;;;;;;;;;;5066666;28;20463;-48
2021/01/29 02:45:32;;;;;;;1.27;1.08;;;;;;;;;;5066340;28;20289;-47
2021/01/29 02:48:11;;;;;;;0.88;0.88;;;;;;;;;;5059734;28;20192;-47
2021/01/29 02:50:37;;;;;;;1.00;1.00;;;;;;;;;;5066840;28;20595;-48
2021/01/29 02:53:12;;;;;;;0.90;0.90;;;;;;;;;;5069216;28;20214;-48
2021/01/29 02:55:40;;;;;;;1.38;1.20;;;;;;;;;;5054736;28;20179;-47
2021/01/29 02:58:21;;;;;;;0.85;0.80;;;;;;;;;;5069502;28;20179;-47
2021/01/29 03:01:05;;;;;;;1.08;0.98;;;;;;;;;;5055893;28;20211;-47
2021/01/29 03:03:38;;;;;;;0.82;0.80;;;;;;;;;;5065819;28;20289;-48
2021/01/29 03:06:27;;;;;;;1.00;0.90;;;;;;;;;;5054819;28;20168;-47
2021/01/29 03:08:58;;;;;;;0.93;0.90;;;;;;;;;;5046937;28;20187;-47
2021/01/29 03:11:33;;;;;;;0.90;0.90;;;;;;;;;;5063722;28;20175;-47
2021/01/29 03:14:11;;;;;;;1.33;1.10;;;;;;;;;;5062145;28;20589;-47
2021/01/29 03:16:42;;;;;;;1.05;1.02;;;;;;;;;;5058100;28;20183;-48
2021/01/29 03:19:14;;;;;;;1.27;0.95;;;;;;;;;;5067439;28;20264;-47
2021/01/29 03:21:48;;;;;;;0.95;0.90;;;;;;;;;;5054789;28;20175;-47
2021/01/29 03:24:34;;;;;;;0.80;0.80;;;;;;;;;;5071919;28;20197;-48
2021/01/29 03:27:02;;;;;;;1.15;1.05;;;;;;;;;;5060470;28;20194;-47
2021/01/29 03:29:36;;;;;;;1.20;1.00;;;;;;;;;;5054876;28;20882;-48
2021/01/29 03:32:03;;;;;;;0.90;0.90;;;;;;;;;;5063876;28;20557;-48
2021/01/29 03:34:48;;;;;;;0.93;0.93;;;;;;;;;;5056750;28;20664;-48
2021/01/29 03:37:16;;;;;;;1.38;1.00;;;;;;;;;;5057367;28;20191;-48
2021/01/29 03:39:42;;;;;;;1.48;0.90;;;;;;;;;;5073224;28;20174;-47
2021/01/29 03:42:19;;;;;;;1.55;1.08;;;;;;;;;;5059631;28;20198;-47
2021/01/29 03:44:55;;;;;;;0.82;0.80;;;;;;;;;;5067438;28;20213;-47
2021/01/29 03:47:35;;;;;;;0.88;0.88;;;;;;;;;;5068949;28;20170;-47
2021/01/29 03:50:13;;;;;;;0.82;0.82;;;;;;;;;;5058991;28;20559;-48
2021/01/29 03:52:56;;;;;;;0.80;0.80;;;;;;;;;;5064822;28;20648;-48
2021/01/29 03:55:39;;;;;;;0.88;0.88;;;;;;;;;;5065737;28;20193;-47
2021/01/29 03:58:09;;;;;;;0.70;0.70;;;;;;;;;;5074224;28;20179;-47
2021/01/29 04:00:38;;;;;;;1.00;1.00;;;;;;;;;;5061857;28;20206;-47
2021/01/29 04:03:13;;;;;;;1.15;0.93;;;;;;;;;;5069816;28;20175;-47
2021/01/29 04:05:57;;;;;;;0.90;0.90;;;;;;;;;;5058259;28;20178;-48
2021/01/29 04:08:29;;;;;;;0.90;0.90;;;;;;;;;;5074276;28;20558;-47
2021/01/29 04:10:57;;;;;;;1.13;1.02;;;;;;;;;;5073356;28;20182;-47
2021/01/29 04:13:38;;;;;;;1.17;1.02;;;;;;;;;;5059247;28;20179;-47
2021/01/29 04:16:07;;;;;;;0.90;0.90;;;;;;;;;;5071062;28;20464;-48
2021/01/29 04:18:35;;;;;;;1.00;0.90;;;;;;;;;;5058851;28;20541;-48
2021/01/29 04:21:03;;;;;;;0.93;0.90;;;;;;;;;;5067257;28;20273;-48
2021/01/29 04:23:35;;;;;;;0.98;0.98;;;;;;;;;;5066285;28;20499;-48
2021/01/29 04:26:07;;;;;;;1.08;0.98;;;;;;;;;;5053031;28;20194;-48
2021/01/29 04:28:36;;;;;;;1.10;1.00;;;;;;;;;;5053766;28;20183;-47
2021/01/29 04:31:04;;;;;;;1.00;0.93;;;;;;;;;;5067389;28;20307;-48
2021/01/29 04:33:32;;;;;;;0.85;0.85;;;;;;;;;;5066450;28;20262;-48
2021/01/29 04:36:00;;;;;;;0.82;0.82;;;;;;;;;;5072676;28;20194;-48
2021/01/29 04:38:46;;;;;;;0.85;0.85;;;;;;;;;;5073767;28;20190;-48
2021/01/29 04:41:21;;;;;;;1.00;1.00;;;;;;;;;;5073652;28;20186;-47
2021/01/29 04:43:47;;;;;;;1.00;0.90;;;;;;;;;;5064325;28;20214;-48
2021/01/29 04:46:32;;;;;;;1.00;1.00;;;;;;;;;;5053701;28;20183;-47
2021/01/29 04:49:10;;;;;;;0.93;0.80;;;;;;;;;;5070259;28;20445;-48
2021/01/29 04:52:01;;;;;;;0.90;0.73;;;;;;;;;;5055901;28;20256;-49
2021/01/29 04:54:51;;;;;;;0.80;0.77;;;;;;;;;;5059165;28;20198;-48
2021/01/29 04:57:36;;;;;;;0.70;0.70;;;;;;;;;;5057962;28;20277;-48
2021/01/29 05:00:04;;;;;;;0.90;0.90;;;;;;;;;;5071813;28;20805;-48
2021/01/29 05:02:33;;;;;;;1.15;0.93;;;;;;;;;;5068239;28;20194;-48
2021/01/29 05:05:26;;;;;;;1.05;0.80;;;;;;;;;;5054279;28;20214;-48
2021/01/29 05:07:58;;;;;;;0.70;0.70;;;;;;;;;;5053183;28;20492;-47
2021/01/29 05:10:24;;;;;;;2.25;0.93;;;;;;;;;;5071634;28;20498;-48
2021/01/29 05:13:09;;;;;;;0.93;0.90;;;;;;;;;;5066120;28;20183;-48
2021/01/29 05:15:38;;;;;;;1.40;0.90;;;;;;;;;;5066752;28;20186;-48
2021/01/29 05:18:10;;;;;;;2.20;0.80;;;;;;;;;;5060795;28;20426;-48
2021/01/29 05:20:49;;;;;;;20.33;4.55;;;;;;;;;;5069890;28;20194;-48
2021/01/29 05:23:34;;;;;;;28.83;5.18;;;;;;;;;;5061838;28;20248;-48
2021/01/29 05:26:18;;;;;;;12.75;3.85;;;;;;;;;;5061450;28;20190;-48
2021/01/29 05:28:44;;;;;;;11.10;3.10;;;;;;;;;;5054778;28;20187;-48
2021/01/29 05:31:10;;;;;;;11.05;2.90;;;;;;;;;;5054488;28;20183;-48
2021/01/29 05:33:42;;;;;;;7.57;2.47;;;;;;;;;;5063731;28;20206;-48
2021/01/29 05:36:11;;;;;;;11.15;3.17;;;;;;;;;;5052370;28;20179;-48
2021/01/29 05:39:00;;;;;;;7.75;2.45;;;;;;;;;;5052604;28;20175;-48
2021/01/29 05:41:45;;;;;;;7.90;2.53;;;;;;;;;;5053240;28;20567;-48
2021/01/29 05:44:11;;;;;;;8.32;2.78;;;;;;;;;;5059892;28;20210;-49
2021/01/29 05:46:40;;;;;;;5.00;2.10;;;;;;;;;;5067338;28;20233;-48
2021/01/29 05:49:06;;;;;;;8.50;2.20;;;;;;;;;;5065166;28;20183;-48
2021/01/29 05:51:58;;;;;;;8.20;2.50;;;;;;;;;;5054569;28;20179;-48
2021/01/29 05:54:36;;;;;;;9.27;2.30;;;;;;;;;;5034576;28;20215;-48
2021/01/29 05:57:19;;;;;;;8.80;2.53;;;;;;;;;;5055050;28;20441;-48
2021/01/29 05:59:54;;;;;;;7.07;2.80;;;;;;;;;;5064926;28;20193;-49
2021/01/29 06:02:29;;;;;;;8.68;2.35;;;;;;;;;;5074665;28;20186;-48
2021/01/29 06:05:27;;;;;;;4.15;2.05;;;;;;;;;;5055345;28;20498;-48
2021/01/29 06:07:59;;;;;;;6.60;2.47;;;;;;;;;;5031071;28;20222;-48
2021/01/29 06:10:30;;;;;;;5.95;2.33;;;;;;;;;;5064278;28;20183;-48
2021/01/29 06:13:15;;;;;;;6.47;2.30;;;;;;;;;;5067057;28;20207;-49
2021/01/29 06:15:41;;;;;;;5.22;2.13;;;;;;;;;;5066327;28;20187;-49
2021/01/29 06:18:16;;;;;;;4.78;2.05;;;;;;;;;;5061577;28;20205;-48
2021/01/29 06:20:45;;;;;;;5.63;2.08;;;;;;;;;;5056067;28;20189;-49
2021/01/29 06:23:20;;;;;;;7.05;2.25;;;;;;;;;;5060660;28;20187;-48
2021/01/29 06:26:05;;;;;;;8.20;2.75;;;;;;;;;;5072694;28;20201;-48
2021/01/29 06:28:37;;;;;;;4.50;2.10;;;;;;;;;;5060597;28;20192;-49
2021/01/29 06:31:14;;;;;;;4.03;2.00;;;;;;;;;;5076231;28;20178;-49
2021/01/29 06:33:45;;;;;;;7.18;2.08;;;;;;;;;;5075174;28;20202;-48
2021/01/29 06:36:30;;;;;;;4.50;1.85;;;;;;;;;;5073905;28;20191;-48
2021/01/29 06:39:16;;;;;;;4.65;2.05;;;;;;;;;;5072390;28;20186;-48
2021/01/29 06:41:45;;;;;;;9.18;2.08;;;;;;;;;;5063062;28;20644;-48
2021/01/29 06:44:22;;;;;;;5.35;2.08;;;;;;;;;;5055129;28;20203;-48
2021/01/29 06:47:07;;;;;;;3.22;1.83;;;;;;;;;;5055056;28;20582;-49
2021/01/29 06:49:48;;;;;;;4.88;2.58;;;;;;;;;;5055410;28;20250;-48
2021/01/29 06:52:33;;;;;;;3.90;2.10;;;;;;;;;;5061335;28;20181;-48
2021/01/29 06:55:11;;;;;;;2.97;1.92;;;;;;;;;;5074005;28;20221;-48
2021/01/29 06:57:43;;;;;;;3.92;2.33;;;;;;;;;;5073166;28;20174;-48
2021/01/29 07:00:28;;;;;;;3.78;1.92;;;;;;;;;;5074690;28;20193;-48
2021/01/29 07:03:04;;;;;;;3.80;2.00;;;;;;;;;;5070002;28;20245;-47
2021/01/29 07:05:51;;;;;;;4.10;1.90;;;;;;;;;;5055185;28;20274;-49
2021/01/29 07:08:20;;;;;;;6.18;2.53;;;;;;;;;;5060906;28;20190;-48
2021/01/29 07:10:49;;;;;;;4.07;2.08;;;;;;;;;;5074773;28;20167;-48
2021/01/29 07:13:34;;;;;;;5.45;2.20;;;;;;;;;;5063064;28;20182;-48
2021/01/29 07:15:59;;;;;;;2.92;2.00;;;;;;;;;;5069668;28;20186;-48
2021/01/29 07:18:45;;;;;;;4.70;2.05;;;;;;;;;;5059412;28;20187;-49
2021/01/29 07:21:30;;;;;;;5.40;2.50;;;;;;;;;;5066075;28;20204;-48
2021/01/29 07:24:14;;;;;;;4.03;2.17;;;;;;;;;;5060747;28;20574;-48
2021/01/29 07:26:43;;;;;;;4.78;2.08;;;;;;;;;;5074467;28;20569;-48
2021/01/29 07:29:17;;;;;;;3.17;2.08;;;;;;;;;;5057139;28;20195;-48
2021/01/29 07:32:04;;;;;;;3.90;2.22;;;;;;;;;;5063601;28;20205;-48
2021/01/29 07:34:48;;;;;;;3.70;2.10;;;;;;;;;;5073735;28;20439;-48
2021/01/29 07:37:14;;;;;;;3.83;2.40;;;;;;;;;;5055123;28;20435;-48
2021/01/29 07:39:49;;;;;;;2.92;2.28;;;;;;;;;;5054027;28;20183;-48
2021/01/29 07:42:34;;;;;;;2.88;2.08;;;;;;;;;;5054516;28;20202;-48
2021/01/29 07:45:19;;;;;;;3.70;2.28;;;;;;;;;;5057283;28;20205;-48
2021/01/29 07:48:05;;;;;;;3.28;2.50;;;;;;;;;;5064427;28;20585;-47
2021/01/29 07:50:38;;;;;;;3.55;2.05;;;;;;;;;;5032867;28;20496;-48
2021/01/29 07:53:13;;;;;;;3.00;2.30;;;;;;;;;;5068679;28;20170;-48
2021/01/29 07:56:08;;;;;;;2.95;2.15;;;;;;;;;;5073400;28;20170;-48
2021/01/29 07:58:48;;;;;;;4.95;2.35;;;;;;;;;;5046749;28;20199;-47
2021/01/29 08:01:22;;;;;;;2.65;2.22;;;;;;;;;;5060645;28;20178;-47
2021/01/29 08:03:57;;;;;;;4.40;2.75;;;;;;;;;;5073033;28;20213;-47
2021/01/29 08:06:32;;;;;;;3.40;3.00;;;;;;;;;;5061348;28;20175;-47
2021/01/29 08:09:05;;;;;;;7.95;3.80;;;;;;;;;;5064723;28;20193;-47
2021/01/29 08:11:33;;;;;;;4.07;3.67;;;;;;;;;;5073725;28;20433;-48
2021/01/29 08:14:04;;;;;;;3.78;3.28;;;;;;;;;;5057372;28;20606;-47
2021/01/29 08:16:49;;;;;;;3.40;3.08;;;;;;;;;;5054280;28;20171;-47
2021/01/29 08:19:36;;;;;;;3.42;3.13;;;;;;;;;;5054344;28;20618;-47
2021/01/29 08:22:22;;;;;;;3.33;3.08;;;;;;;;;;5032330;28;20186;-47
2021/01/29 08:24:57;;;;;;;4.45;3.00;;;;;;;;;;5052642;28;20586;-48
2021/01/29 08:27:29;;;;;;;3.35;3.05;;;;;;;;;;5053738;28;20216;-47
2021/01/29 08:29:55;;;;;;;3.03;2.58;;;;;;;;;;5053421;28;20183;-47
2021/01/29 08:32:24;;;;;;;5.68;3.83;;;;;;;;;;5053260;28;20198;-47
2021/01/29 08:35:03;;;;;;;3.72;3.13;;;;;;;;;;5077274;28;20178;-47
2021/01/29 08:37:36;;;;;;;3.17;2.53;;;;;;;;;;5094031;28;20846;-47
2021/01/29 08:40:05;;;;;;;3.08;2.75;;;;;;;;;;5093816;28;20174;-47
2021/01/29 08:42:31;;;;;;;3.67;2.80;;;;;;;;;;5093891;28;20231;-47
2021/01/29 08:45:09;;;;;;;3.67;2.80;;;;;;;;;;5091175;28;20299;-48
2021/01/29 08:47:43;;;;;;;3.45;2.83;;;;;;;;;;5058836;28;20186;-48
2021/01/29 08:50:22;;;;;;;3.30;2.92;;;;;;;;;;5060707;28;20263;-48
2021/01/29 08:52:48;;;;;;;2.65;2.45;;;;;;;;;;5052335;28;20179;-47
2021/01/29 08:55:14;;;;;;;3.58;2.90;;;;;;;;;;5052209;28;20199;-47
2021/01/29 08:57:40;;;;;;;2.60;2.40;;;;;;;;;;5067777;28;20217;-47
2021/01/29 09:00:06;;;;;;;3.38;2.80;;;;;;;;;;5068908;28;20187;-47
2021/01/29 09:02:52;;;;;;;4.93;2.72;;;;;;;;;;5063148;28;20452;-48
2021/01/29 09:05:29;;;;;;;5.93;3.08;;;;;;;;;;5072020;28;20190;-48
2021/01/29 09:07:56;;;;;;;4.90;2.80;;;;;;;;;;5068495;28;20337;-48
2021/01/29 09:10:23;;;;;;;5.53;3.20;;;;;;;;;;5059401;28;20556;-48
2021/01/29 09:12:58;;;;;;;3.72;2.70;;;;;;;;;;5072060;28;20218;-47
2021/01/29 09:15:44;;;;;;;4.25;2.58;;;;;;;;;;5071199;28;20184;-47
2021/01/29 09:18:21;;;;;;;3.00;2.70;;;;;;;;;;5060748;28;20210;-47
2021/01/29 09:20:59;;;;;;;4.43;2.88;;;;;;;;;;5060143;28;20284;-48
2021/01/29 09:23:32;;;;;;;3.95;3.03;;;;;;;;;;5063823;28;20580;-47
2021/01/29 09:26:03;;;;;;;3.47;2.97;;;;;;;;;;5052161;28;20202;-48
2021/01/29 09:28:37;;;;;;;5.07;2.72;;;;;;;;;;5069480;28;20178;-47
2021/01/29 09:31:08;;;;;;;2.60;2.40;;;;;;;;;;5057596;28;20183;-48
2021/01/29 09:33:34;;;;;;;3.28;2.53;;;;;;;;;;5056149;28;20213;-48
2021/01/29 09:36:03;;;;;;;3.67;2.78;;;;;;;;;;5064063;28;20174;-48
2021/01/29 09:38:32;;;;;;;3.25;2.40;;;;;;;;;;5064539;28;20197;-48
2021/01/29 09:41:00;;;;;;;3.58;2.83;;;;;;;;;;5061495;28;20458;-48
2021/01/29 09:43:29;;;;;;;2.50;2.30;;;;;;;;;;5056895;28;20563;-48
2021/01/29 09:45:56;;;;;;;3.30;2.53;;;;;;;;;;5055986;28;20179;-49
2021/01/29 09:48:24;;;;;;;3.38;2.85;;;;;;;;;;5064662;28;20178;-47
2021/01/29 09:50:59;;;;;;;2.90;2.33;;;;;;;;;;5069852;28;20559;-47
2021/01/29 09:53:27;;;;;;;4.10;2.42;;;;;;;;;;5067042;28;20181;-47
2021/01/29 09:56:03;;;;;;;2.95;2.50;;;;;;;;;;5075390;28;20175;-47
2021/01/29 09:58:34;;;;;;;3.50;2.25;;;;;;;;;;5076427;28;20253;-47
2021/01/29 10:01:11;;;;;;;2.90;2.28;;;;;;;;;;5075993;28;20194;-47
2021/01/29 10:03:46;;;;;;;2.15;1.95;;;;;;;;;;5069212;28;20479;-47
2021/01/29 10:06:17;;;;;;;2.80;2.13;;;;;;;;;;5069024;28;20186;-47
2021/01/29 10:08:49;;;;;;;3.20;2.42;;;;;;;;;;5056120;28;20179;-47
2021/01/29 10:11:18;;;;;;;2.33;2.13;;;;;;;;;;5058664;28;20171;-47
2021/01/29 10:13:44;;;;;;;3.22;2.33;;;;;;;;;;5067651;28;20187;-48
2021/01/29 10:16:29;;;;;;;2.10;1.80;;;;;;;;;;5059218;28;20203;-48
2021/01/29 10:19:13;;;;;;;3.65;2.20;;;;;;;;;;5064160;28;20275;-47
2021/01/29 10:21:57;;;;;;;3.08;2.22;;;;;;;;;;5057111;28;20179;-47
2021/01/29 10:24:26;;;;;;;3.60;1.92;;;;;;;;;;5058130;28;20207;-47
2021/01/29 10:27:02;;;;;;;4.03;2.20;;;;;;;;;;5059110;28;20180;-47
2021/01/29 10:29:30;;;;;;;1.95;1.73;;;;;;;;;;5063928;28;20435;-47
2021/01/29 10:32:18;;;;;;;2.25;2.05;;;;;;;;;;5063474;28;20234;-47
2021/01/29 10:34:55;;;;;;;3.13;2.03;;;;;;;;;;5059220;28;20171;-48
2021/01/29 10:37:40;;;;;;;2.97;2.03;;;;;;;;;;5055961;28;20572;-48
2021/01/29 10:40:18;;;;;;;2.42;2.08;;;;;;;;;;5074239;28;20190;-48
2021/01/29 10:42:54;;;;;;;2.33;1.90;;;;;;;;;;5061480;28;20187;-47
2021/01/29 10:45:30;;;;;;;2.95;1.98;;;;;;;;;;5055359;28;20215;-47
2021/01/29 10:48:09;;;;;;;2.00;1.88;;;;;;;;;;5058628;28;20240;-47
2021/01/29 10:50:43;;;;;;;2.17;1.98;;;;;;;;;;5061067;28;20573;-47
2021/01/29 10:53:11;;;;;;;1.70;1.60;;;;;;;;;;5055459;28;20232;-47
2021/01/29 10:55:40;;;;;;;2.67;2.10;;;;;;;;;;5054856;28;20262;-48
2021/01/29 10:58:25;;;;;;;2.53;1.80;;;;;;;;;;5065118;28;20452;-47
2021/01/29 11:00:52;;;;;;;2.42;2.10;;;;;;;;;;5055056;28;20191;-47
2021/01/29 11:03:21;;;;;;;2.88;2.00;;;;;;;;;;5060962;28;20211;-47
2021/01/29 11:05:48;;;;;;;4.38;2.00;;;;;;;;;;5074420;28;20261;-48
2021/01/29 11:08:24;;;;;;;1.90;1.80;;;;;;;;;;5070396;28;20186;-48
2021/01/29 11:10:59;;;;;;;3.88;2.00;;;;;;;;;;5094485;28;20170;-48
2021/01/29 11:13:28;;;;;;;1.70;1.60;;;;;;;;;;5072187;28;20216;-48
2021/01/29 11:15:54;;;;;;;3.78;1.98;;;;;;;;;;5069033;28;20235;-48
2021/01/29 11:18:30;;;;;;;2.00;1.80;;;;;;;;;;5064598;28;20206;-48
2021/01/29 11:21:02;;;;;;;2.72;2.10;;;;;;;;;;5054388;28;20217;-47
2021/01/29 11:23:29;;;;;;;3.88;2.53;;;;;;;;;;5067222;28;20288;-47
2021/01/29 11:26:07;;;;;;;3.85;2.10;;;;;;;;;;5063993;28;20291;-47
2021/01/29 11:28:51;;;;;;;4.50;2.50;;;;;;;;;;5067699;28;20167;-47
2021/01/29 11:31:34;;;;;;;2.38;2.13;;;;;;;;;;5073345;28;20245;-47
2021/01/29 11:34:01;;;;;;;2.53;1.90;;;;;;;;;;5059847;28;20197;-47
2021/01/29 11:36:27;;;;;;;2.75;2.25;;;;;;;;;;5062275;28;20190;-47
2021/01/29 11:38:58;;;;;;;3.88;2.00;;;;;;;;;;5067221;28;20182;-47
2021/01/29 11:41:24;;;;;;;2.85;1.95;;;;;;;;;;5073361;28;20217;-48
2021/01/29 11:44:01;;;;;;;2.22;1.80;;;;;;;;;;5063880;28;20596;-48
2021/01/29 11:46:29;;;;;;;2.85;2.10;;;;;;;;;;5067473;28;20544;-48
2021/01/29 11:49:03;;;;;;;2.25;1.80;;;;;;;;;;5062791;28;20187;-47
2021/01/29 11:51:36;;;;;;;7.07;1.83;;;;;;;;;;5055989;28;20190;-47
2021/01/29 11:54:01;;;;;;;3.65;1.73;;;;;;;;;;5073264;28;20546;-47
2021/01/29 11:56:34;;;;;;;2.35;1.80;;;;;;;;;;5070838;28;20186;-47
2021/01/29 11:59:03;;;;;;;2.38;1.90;;;;;;;;;;5056624;28;20218;-48
2021/01/29 12:01:44;;;;;;;2.17;1.50;;;;;;;;;;5054402;28;20183;-47
2021/01/29 12:04:29;;;;;;;2.53;1.80;;;;;;;;;;5065613;28;20500;-48
2021/01/29 12:07:01;;;;;;;1.42;1.30;;;;;;;;;;5057951;28;20183;-48
2021/01/29 12:09:27;;;;;;;2.78;1.77;;;;;;;;;;5074025;28;20223;-47
2021/01/29 12:12:02;;;;;;;3.47;1.92;;;;;;;;;;5073634;28;20503;-47
2021/01/29 12:14:46;;;;;;;2.38;1.50;;;;;;;;;;5069912;28;20185;-48
2021/01/29 12:17:13;;;;;;;2.25;1.70;;;;;;;;;;5056367;28;20195;-48
2021/01/29 12:19:42;;;;;;;1.75;1.60;;;;;;;;;;5063444;28;20198;-49
2021/01/29 12:22:11;;;;;;;3.90;1.73;;;;;;;;;;5062411;28;20260;-48
2021/01/29 12:24:52;;;;;;;1.75;1.55;;;;;;;;;;5073018;28;20248;-48
2021/01/29 12:27:21;;;;;;;2.10;1.58;;;;;;;;;;5073526;28;20179;-48
2021/01/29 12:29:53;;;;;;;2.00;1.42;;;;;;;;;;5056348;28;20571;-48
2021/01/29 12:32:22;;;;;;;1.73;1.50;;;;;;;;;;5064065;28;20220;-47
2021/01/29 12:35:07;;;;;;;2.92;1.95;;;;;;;;;;5086899;28;20184;-47
2021/01/29 12:37:37;;;;;;;1.50;1.40;;;;;;;;;;5065195;28;20187;-48
2021/01/29 12:40:06;;;;;;;2.72;1.75;;;;;;;;;;5070358;28;20508;-48
2021/01/29 12:42:39;;;;;;;2.05;1.67;;;;;;;;;;5070114;28;20192;-48
2021/01/29 12:45:08;;;;;;;2.45;1.52;;;;;;;;;;5059673;28;20198;-47
2021/01/29 12:47:34;;;;;;;3.75;1.40;;;;;;;;;;5068788;28;20181;-47
2021/01/29 12:50:22;;;;;;;2.00;1.50;;;;;;;;;;5061504;28;20257;-48
2021/01/29 12:52:53;;;;;;;2.25;1.70;;;;;;;;;;5063774;28;20210;-48
2021/01/29 12:55:27;;;;;;;2.67;1.40;;;;;;;;;;5071885;28;20526;-48
2021/01/29 12:58:06;;;;;;;2.47;1.33;;;;;;;;;;5072431;28;20175;-48
2021/01/29 13:00:38;;;;;;;2.42;1.40;;;;;;;;;;5073614;28;20222;-48
2021/01/29 13:03:19;;;;;;;5.35;1.67;;;;;;;;;;5065641;28;20191;-48
2021/01/29 13:05:48;;;;;;;4.43;1.65;;;;;;;;;;5056125;28;20174;-48
2021/01/29 13:08:17;;;;;;;7.00;2.08;;;;;;;;;;5058788;28;20189;-60
2021/01/29 13:10:47;;;;;;;7.30;1.90;;;;;;;;;;5052999;28;20187;-60
2021/01/29 13:13:16;;;;;;;10.52;1.80;;;;;;;;;;5053627;28;20163;-55
2021/01/29 13:15:45;;;;;;;4.90;1.83;;;;;;;;;;5067639;28;20209;-65
2021/01/29 13:18:16;;;;;;;6.60;2.13;;;;;;;;;;5064428;28;20233;-53
2021/01/29 13:21:04;;;;;;;2.88;1.48;;;;;;;;;;5059906;28;20187;-53
2021/01/29 13:23:31;;;;;;;7.22;1.60;;;;;;;;;;5059216;28;20207;-52
2021/01/29 13:26:19;;;;;;;5.85;1.50;;;;;;;;;;5052272;28;20186;-57
2021/01/29 13:29:03;;;;;;;3.67;1.75;;;;;;;;;;5061696;28;20198;-52
2021/01/29 13:31:38;;;;;;;2.58;1.50;;;;;;;;;;5060030;28;20170;-52
2021/01/29 13:34:18;;;;;;;1.60;1.33;;;;;;;;;;5059661;28;20201;-52
2021/01/29 13:37:08;;;;;;;4.60;1.80;;;;;;;;;;5072269;28;20182;-52
2021/01/29 13:39:37;;;;;;;1.92;1.35;;;;;;;;;;5048609;28;20554;-50
2021/01/29 13:42:12;;;;;;;4.20;1.35;;;;;;;;;;5053061;28;20265;-49
2021/01/29 13:44:42;;;;;;;5.90;1.55;;;;;;;;;;5059388;28;20199;-59
2021/01/29 13:47:16;;;;;;;3.72;1.42;;;;;;;;;;5071645;28;20447;-52
2021/01/29 13:49:42;;;;;;;3.92;1.40;;;;;;;;;;5068121;28;20232;-60
2021/01/29 13:52:28;;;;;;;3.30;1.45;;;;;;;;;;5064772;28;20423;-51
2021/01/29 13:54:55;;;;;;;4.15;1.30;;;;;;;;;;5066164;28;20197;-50
2021/01/29 13:57:21;;;;;;;4.03;1.60;;;;;;;;;;5071173;28;20178;-49
2021/01/29 13:59:51;;;;;;;3.38;1.20;;;;;;;;;;5060947;28;20449;-50
2021/01/29 14:02:38;;;;;;;2.03;1.20;;;;;;;;;;5053780;28;20186;-49
2021/01/29 14:05:24;;;;;;;3.47;1.52;;;;;;;;;;5052344;28;20221;-50
2021/01/29 14:07:51;;;;;;;4.32;1.80;;;;;;;;;;5058916;28;20308;-54
2021/01/29 14:10:21;;;;;;;5.38;1.40;;;;;;;;;;5072765;28;20623;-64
2021/01/29 14:13:05;;;;;;;2.28;1.30;;;;;;;;;;5070493;28;20356;-56
2021/01/29 14:15:52;;;;;;;2.42;1.42;;;;;;;;;;5058339;28;20198;-51
2021/01/29 14:18:36;;;;;;;7.55;1.40;;;;;;;;;;5061154;28;20202;-58
2021/01/29 14:21:05;;;;;;;2.15;1.13;;;;;;;;;;5073929;28;20194;-55
2021/01/29 14:23:35;;;;;;;2.50;1.00;;;;;;;;;;5076068;28;20601;-55
2021/01/29 14:26:07;;;;;;;3.95;1.20;;;;;;;;;;5075497;28;20192;-53
2021/01/29 14:28:54;;;;;;;2.25;1.45;;;;;;;;;;5067350;28;20193;-53
2021/01/29 14:31:23;;;;;;;1.73;0.90;;;;;;;;;;5073376;28;20214;-51
2021/01/29 14:34:07;;;;;;;3.45;1.33;;;;;;;;;;5063117;28;20690;-49
2021/01/29 14:36:51;;;;;;;1.30;1.00;;;;;;;;;;5059992;28;20186;-49
2021/01/29 14:39:17;;;;;;;2.28;1.48;;;;;;;;;;5076163;28;20188;-52
2021/01/29 14:42:02;;;;;;;1.30;1.10;;;;;;;;;;5075609;28;20249;-57
2021/01/29 14:44:51;;;;;;;1.10;0.98;;;;;;;;;;5068998;28;20202;-66
2021/01/29 14:47:36;;;;;;;2.25;1.08;;;;;;;;;;5049478;28;20277;-60
2021/01/29 14:50:16;;;;;;;2.55;1.05;;;;;;;;;;5074141;28;20189;-61
2021/01/29 14:52:49;;;;;;;4.05;1.88;;;;;;;;;;5066431;28;20189;-62
2021/01/29 14:55:21;;;;;;;1.80;1.10;;;;;;;;;;5074586;28;20185;-62
2021/01/29 14:57:47;;;;;;;1.27;1.17;;;;;;;;;;5074251;28;20190;-61
2021/01/29 15:00:16;;;;;;;1.85;0.93;;;;;;;;;;5075441;28;20249;-61
2021/01/29 15:02:42;;;;;;;1.15;0.90;;;;;;;;;;5063624;28;20266;-60
2021/01/29 15:05:09;;;;;;;2.45;1.27;;;;;;;;;;5062750;28;20297;-61
2021/01/29 15:07:37;;;;;;;1.05;0.80;;;;;;;;;;5074413;28;20197;-61
2021/01/29 15:10:06;;;;;;;2.63;1.20;;;;;;;;;;5074962;28;20228;-61
2021/01/29 15:12:37;;;;;;;1.42;1.08;;;;;;;;;;5075262;28;20205;-61
2021/01/29 15:15:08;;;;;;;6.15;1.20;;;;;;;;;;5070113;28;20186;-61
2021/01/29 15:17:34;;;;;;;1.40;1.05;;;;;;;;;;5058376;28;20269;-61
2021/01/29 15:20:19;;;;;;;2.55;1.17;;;;;;;;;;5056248;28;20191;-61
2021/01/29 15:22:45;;;;;;;1.88;0.90;;;;;;;;;;5064300;28;20194;-61